createdAt,value
2019-03-05T00:04:10.460Z,462.27
2019-03-05T00:10:40.732Z,497.43
2019-03-05T00:17:11.380Z,519.62
2019-03-05T00:23:49.740Z,544.97
2019-03-05T00:27:14.373Z,543.42
2019-03-05T00:34:06.723Z,549.85
2019-03-05T00:37:30.793Z,548.23
2019-03-05T00:44:23.067Z,549.12
2019-03-05T00:51:03.237Z,561.30
2019-03-05T00:54:27.745Z,543.63
2019-03-05T00:57:03.847Z,557.88
2019-03-05T01:03:47.237Z,571.92
2019-03-05T01:10:37.145Z,559.10
2019-03-05T01:13:36.933Z,555.73
2019-03-05T01:16:07.189Z,556.75
2019-03-05T01:22:37.225Z,544.90
2019-03-05T01:26:01.495Z,550.00
2019-03-05T01:33:25.616Z,541.75
2019-03-05T01:39:57.782Z,523.33
2019-03-05T01:43:04.928Z,520.87
2019-03-05T01:49:35.083Z,509.45
2019-03-05T01:52:59.464Z,507.62
2019-03-05T01:59:30.050Z,505.87
2019-03-05T02:06:00.543Z,518.30
2019-03-05T02:09:24.874Z,510.07
2019-03-05T02:15:55.135Z,502.70
2019-03-05T02:22:29.043Z,500.30
2019-03-05T02:25:53.464Z,499.60
2019-03-05T02:32:50.392Z,511.70
2019-03-05T02:39:32.759Z,524.25
2019-03-05T02:42:38.826Z,527.50
2019-03-05T02:49:11.896Z,522.52
2019-03-05T02:52:35.983Z,534.83
2019-03-05T02:59:04.963Z,544.50
2019-03-05T03:05:36.842Z,521.85
2019-03-05T03:09:00.775Z,520.05
2019-03-05T03:15:31.231Z,536.30
2019-03-05T03:18:01.189Z,531.00
2019-03-05T03:24:32.764Z,537.12
2019-03-05T03:31:03.322Z,554.00
2019-03-05T03:37:34.220Z,549.77
2019-03-05T03:40:58.564Z,544.97
2019-03-05T03:47:29.090Z,549.12
2019-03-05T03:54:00.045Z,524.58
2019-03-05T03:57:24.405Z,541.10
2019-03-05T04:03:55.624Z,526.80
2019-03-05T04:07:19.953Z,526.82
2019-03-05T04:13:50.411Z,542.48
2019-03-05T04:20:23.174Z,548.88
2019-03-05T04:26:54.335Z,550.98
2019-03-05T04:33:25.434Z,546.98
2019-03-05T04:39:56.381Z,528.48
2019-03-05T04:43:20.883Z,524.40
2019-03-05T04:49:55.956Z,518.77
2019-03-05T04:53:20.287Z,511.87
2019-03-05T04:59:51.273Z,501.33
2019-03-05T05:03:15.388Z,502.82
2019-03-05T05:09:46.447Z,491.77
2019-03-05T05:13:10.951Z,493.27
2019-03-05T05:19:42.014Z,476.37
2019-03-05T05:22:13.546Z,485.37
2019-03-05T05:28:44.530Z,492.07
2019-03-05T05:35:15.773Z,504.70
2019-03-05T05:38:40.018Z,515.23
2019-03-05T05:45:19.230Z,503.48
2019-03-05T05:48:43.386Z,513.58
2019-03-05T05:55:14.364Z,525.77
2019-03-05T05:58:38.825Z,513.95
2019-03-05T06:05:09.904Z,521.83
2019-03-05T06:08:34.503Z,521.80
2019-03-05T06:15:08.423Z,531.42
2019-03-05T06:18:32.869Z,535.20
2019-03-05T06:25:05.227Z,535.20
2019-03-05T06:28:29.456Z,528.33
2019-03-05T06:35:00.324Z,537.40
2019-03-05T06:38:07.267Z,529.77
2019-03-05T06:44:37.505Z,550.92
2019-03-05T06:51:07.396Z,549.05
2019-03-05T06:54:31.583Z,543.85
2019-03-05T07:01:02.199Z,553.35
2019-03-05T07:07:32.687Z,555.98
2019-03-05T07:10:57.181Z,555.37
2019-03-05T07:17:43.791Z,555.42
2019-03-05T07:24:40.333Z,565.05
2019-03-05T07:31:10.922Z,575.50
2019-03-05T07:37:41.559Z,588.15
2019-03-05T07:44:12.646Z,575.67
2019-03-05T07:47:36.990Z,590.02
2019-03-05T07:54:08.482Z,575.67
2019-03-05T08:00:39.708Z,586.75
2019-03-05T08:04:03.910Z,590.15
2019-03-05T08:10:34.539Z,600.60
2019-03-05T08:17:05.083Z,621.17
2019-03-05T08:20:29.475Z,631.25
2019-03-05T08:27:00.469Z,639.02
2019-03-05T08:33:31.134Z,642.55
2019-03-05T08:36:55.894Z,640.75
2019-03-05T08:43:26.675Z,631.33
2019-03-05T08:46:51.439Z,631.37
2019-03-05T08:53:22.969Z,638.58
2019-03-05T08:59:53.873Z,636.05
2019-03-05T09:03:18.678Z,651.03
2019-03-05T09:09:49.567Z,653.67
2019-03-05T09:16:20.720Z,676.35
2019-03-05T09:19:45.096Z,688.08
2019-03-05T09:26:16.066Z,718.73
2019-03-05T09:28:46.152Z,732.20
2019-03-05T09:35:17.494Z,761.60
2019-03-05T09:41:48.572Z,774.38
2019-03-05T09:48:19.536Z,768.02
2019-03-05T09:51:08.223Z,775.53
2019-03-05T09:57:40.008Z,793.73
2019-03-05T10:04:10.542Z,807.87
2019-03-05T10:07:34.841Z,819.30
2019-03-05T10:14:04.959Z,839.02
2019-03-05T10:20:35.840Z,855.05
2019-03-05T10:27:05.959Z,869.10
2019-03-05T10:29:35.827Z,864.65
2019-03-05T10:33:00.386Z,851.47
2019-03-05T10:39:31.522Z,842.93
2019-03-05T10:46:02.812Z,815.25
2019-03-05T10:52:33.676Z,796.77
2019-03-05T10:55:58.464Z,799.62
2019-03-05T11:02:29.508Z,805.80
2019-03-05T11:09:00.500Z,800.28
2019-03-05T11:12:25.154Z,797.52
2019-03-05T11:18:55.759Z,827.08
2019-03-05T11:22:20.506Z,819.95
2019-03-05T11:28:51.482Z,840.35
2019-03-05T11:35:27.814Z,844.03
2019-03-05T11:38:52.283Z,845.08
2019-03-05T11:45:29.081Z,859.33
2019-03-05T11:52:00.706Z,873.83
2019-03-05T11:55:25.360Z,879.35
2019-03-05T12:01:56.453Z,894.97
2019-03-05T12:05:21.082Z,897.20
2019-03-05T12:11:52.239Z,899.30
2019-03-05T12:18:25.325Z,900.55
2019-03-05T12:21:49.291Z,898.85
2019-03-05T12:28:19.581Z,897.98
2019-03-05T12:31:02.155Z,882.47
2019-03-05T12:34:27.289Z,883.80
2019-03-05T12:40:58.295Z,857.38
2019-03-05T12:47:29.174Z,868.37
2019-03-05T12:50:53.998Z,866.90
2019-03-05T12:57:24.928Z,881.17
2019-03-05T13:00:49.289Z,870.03
2019-03-05T13:07:21.844Z,886.48
2019-03-05T13:10:45.879Z,882.87
2019-03-05T13:17:16.814Z,894.63
2019-03-05T13:20:41.000Z,899.62
2019-03-05T13:27:12.090Z,910.00
2019-03-05T13:33:43.209Z,917.05
2019-03-05T13:40:15.958Z,910.25
2019-03-05T13:46:46.541Z,907.90
2019-03-05T13:53:30.241Z,901.48
2019-03-05T13:56:54.979Z,902.20
2019-03-05T14:03:34.619Z,898.30
2019-03-05T14:10:06.187Z,899.45
2019-03-05T14:13:30.729Z,905.93
2019-03-05T14:20:01.462Z,909.17
2019-03-05T14:26:32.699Z,910.37
2019-03-05T14:33:03.726Z,909.62
2019-03-05T14:35:33.992Z,898.32
2019-03-05T14:42:06.883Z,897.52
2019-03-05T14:45:31.353Z,895.00
2019-03-05T14:52:01.967Z,901.20
2019-03-05T14:58:32.494Z,907.13
2019-03-05T15:05:03.695Z,895.03
2019-03-05T15:11:35.024Z,880.40
2019-03-05T15:14:59.250Z,874.08
2019-03-05T15:21:30.065Z,876.35
2019-03-05T15:28:01.247Z,865.83
2019-03-05T15:34:32.109Z,862.97
2019-03-05T15:41:02.943Z,864.67
2019-03-05T15:47:34.104Z,865.30
2019-03-05T15:54:04.688Z,872.10
2019-03-05T15:57:29.167Z,862.85
2019-03-05T16:04:00.023Z,865.02
2019-03-05T16:07:24.831Z,864.10
2019-03-05T16:13:56.555Z,859.47
2019-03-05T16:20:29.735Z,848.67
2019-03-05T16:23:54.491Z,841.85
2019-03-05T16:30:44.890Z,842.92
2019-03-05T16:37:29.499Z,834.88
2019-03-05T16:44:01.840Z,824.98
2019-03-05T16:47:26.067Z,824.23
2019-03-05T16:54:04.398Z,826.17
2019-03-05T16:56:35.946Z,830.80
2019-03-05T17:03:14.134Z,835.48
2019-03-05T17:09:52.307Z,839.65
2019-03-05T17:16:23.529Z,840.83
2019-03-05T17:19:48.155Z,831.55
2019-03-05T17:26:18.745Z,827.10
2019-03-05T17:32:50.005Z,831.80
2019-03-05T17:39:21.837Z,834.17
2019-03-05T17:45:52.635Z,815.53
2019-03-05T17:48:59.286Z,821.18
2019-03-05T17:55:30.496Z,818.63
2019-03-05T18:02:03.305Z,812.00
2019-03-05T18:08:34.161Z,813.72
2019-03-05T18:15:11.146Z,816.83
2019-03-05T18:18:35.312Z,829.87
2019-03-05T18:25:09.419Z,814.35
2019-03-05T18:28:34.020Z,821.85
2019-03-05T18:35:07.275Z,809.83
2019-03-05T18:41:38.030Z,813.15
2019-03-05T18:48:09.564Z,817.10
2019-03-05T18:54:40.903Z,813.98
2019-03-05T19:01:11.274Z,819.67
2019-03-05T19:07:42.167Z,807.53
2019-03-05T19:11:06.590Z,804.60
2019-03-05T19:17:37.613Z,819.43
2019-03-05T19:21:02.033Z,814.52
2019-03-05T19:27:33.809Z,825.02
2019-03-05T19:34:04.664Z,818.15
2019-03-05T19:40:37.221Z,798.75
2019-03-05T19:43:07.652Z,787.88
2019-03-05T19:49:38.520Z,795.75
2019-03-05T19:56:09.537Z,794.97
2019-03-05T20:02:40.758Z,776.52
2019-03-05T20:09:14.536Z,789.42
2019-03-05T20:15:45.325Z,774.65
2019-03-05T20:19:09.789Z,770.30
2019-03-05T20:25:41.898Z,753.07
2019-03-05T20:32:12.418Z,759.05
2019-03-05T20:38:43.205Z,756.27
2019-03-05T20:45:16.920Z,754.48
2019-03-05T20:51:47.750Z,746.20
2019-03-05T20:58:18.535Z,753.00
2019-03-05T21:04:49.225Z,752.58
2019-03-05T21:11:20.035Z,756.27
2019-03-05T21:14:44.389Z,753.15
2019-03-05T21:21:15.153Z,742.03
2019-03-05T21:27:46.389Z,740.62
2019-03-05T21:31:10.827Z,730.97
2019-03-05T21:37:42.124Z,729.53
2019-03-05T21:41:06.757Z,724.70
2019-03-05T21:47:37.949Z,718.10
2019-03-05T21:54:09.101Z,714.90
2019-03-05T22:00:41.544Z,712.88
2019-03-05T22:07:12.450Z,700.65
2019-03-05T22:10:36.991Z,704.10
2019-03-05T22:17:07.720Z,691.45
2019-03-05T22:20:32.515Z,689.30
2019-03-05T22:27:03.566Z,685.55
2019-03-05T22:30:27.980Z,673.78
2019-03-05T22:36:58.580Z,666.42
2019-03-05T22:40:23.090Z,651.87
2019-03-05T22:46:53.831Z,646.22
2019-03-05T22:49:23.730Z,640.37
2019-03-05T22:52:48.036Z,640.83
2019-03-05T22:59:18.571Z,610.78
2019-03-05T23:05:49.387Z,605.13
2019-03-05T23:12:20.402Z,596.53
2019-03-05T23:18:51.437Z,594.35
2019-03-05T23:22:16.153Z,585.25
2019-03-05T23:28:46.479Z,588.55
2019-03-05T23:35:16.993Z,583.40
2019-03-05T23:38:41.270Z,591.25
2019-03-05T23:45:16.303Z,592.72
2019-03-05T23:51:47.264Z,584.45
2019-03-05T23:58:18.792Z,571.67
